Reynolds, Indiana
Current Conditions -  °F | °C
As of 8:55 PM on Sunday 21 Dec 2014 (Local Time) from KMCX Reporting Station
Clear Clear  
Wind Chill: 31°   Ceiling: Unl
Heat Index: 31°   Visibility: 7mi
Dew Point: 28°   Wind: 3mph
Humidity: 88%   Direction: 130°SE
Pressure: 30.11"   Gusts: NA
Location:  40.75°N, 86.87°W
Report Text: KMCX 220155Z AUTO 13003KT 7SM CLR 00/M02 A3011 RMK AO2 T10051023
Loading
Personal Weather Stations






























Interactive Weather Map New forecast layout! Learn more

10-Day Weather Forecast

Advertisements
Track Severe Weather on mobile